sensor_id;sensor_type;location;lat;lon;timestamp;P1;durP1;ratioP1;P2;durP2;ratioP2
72261;SDS011;60173;52.112;8.648;2023-03-01T00:01:31;25.67;;;12.55;;
72261;SDS011;60173;52.112;8.648;2023-03-01T00:03:58;24.98;;;12.65;;
72261;SDS011;60173;52.112;8.648;2023-03-01T00:06:25;21.83;;;11.77;;
72261;SDS011;60173;52.112;8.648;2023-03-01T00:08:52;20.75;;;11.05;;
72261;SDS011;60173;52.112;8.648;2023-03-01T00:11:20;22.45;;;11.30;;
72261;SDS011;60173;52.112;8.648;2023-03-01T00:13:52;23.33;;;12.15;;
72261;SDS011;60173;52.112;8.648;2023-03-01T00:16:22;24.05;;;12.38;;
72261;SDS011;60173;52.112;8.648;2023-03-01T00:18:53;30.33;;;12.40;;
72261;SDS011;60173;52.112;8.648;2023-03-01T00:21:21;21.23;;;11.48;;
72261;SDS011;60173;52.112;8.648;2023-03-01T00:23:48;22.30;;;12.35;;
72261;SDS011;60173;52.112;8.648;2023-03-01T00:26:16;22.80;;;12.10;;
72261;SDS011;60173;52.112;8.648;2023-03-01T00:28:43;22.67;;;11.75;;
72261;SDS011;60173;52.112;8.648;2023-03-01T00:31:11;22.65;;;12.73;;
72261;SDS011;60173;52.112;8.648;2023-03-01T00:33:41;25.55;;;12.07;;
72261;SDS011;60173;52.112;8.648;2023-03-01T00:36:08;23.10;;;12.18;;
72261;SDS011;60173;52.112;8.648;2023-03-01T00:38:36;28.33;;;12.35;;
72261;SDS011;60173;52.112;8.648;2023-03-01T00:41:07;21.30;;;12.30;;
72261;SDS011;60173;52.112;8.648;2023-03-01T00:43:36;22.23;;;12.07;;
72261;SDS011;60173;52.112;8.648;2023-03-01T00:46:03;19.77;;;11.23;;
72261;SDS011;60173;52.112;8.648;2023-03-01T00:48:35;23.15;;;11.75;;
72261;SDS011;60173;52.112;8.648;2023-03-01T00:51:09;23.08;;;10.70;;
72261;SDS011;60173;52.112;8.648;2023-03-01T00:53:37;21.17;;;11.65;;
72261;SDS011;60173;52.112;8.648;2023-03-01T00:56:04;24.75;;;12.13;;
72261;SDS011;60173;52.112;8.648;2023-03-01T00:58:32;21.15;;;10.82;;
72261;SDS011;60173;52.112;8.648;2023-03-01T01:00:59;25.48;;;11.57;;
72261;SDS011;60173;52.112;8.648;2023-03-01T01:03:25;23.60;;;12.13;;
72261;SDS011;60173;52.112;8.648;2023-03-01T01:05:52;24.17;;;12.65;;
72261;SDS011;60173;52.112;8.648;2023-03-01T01:08:19;21.83;;;11.20;;
72261;SDS011;60173;52.112;8.648;2023-03-01T01:10:46;25.95;;;13.23;;
72261;SDS011;60173;52.112;8.648;2023-03-01T01:13:13;25.58;;;13.05;;
72261;SDS011;60173;52.112;8.648;2023-03-01T01:15:40;26.30;;;13.48;;
72261;SDS011;60173;52.112;8.648;2023-03-01T01:18:07;28.75;;;13.10;;
72261;SDS011;60173;52.112;8.648;2023-03-01T01:20:34;24.40;;;12.95;;
72261;SDS011;60173;52.112;8.648;2023-03-01T01:23:01;24.42;;;13.73;;
72261;SDS011;60173;52.112;8.648;2023-03-01T01:25:28;26.48;;;13.93;;
72261;SDS011;60173;52.112;8.648;2023-03-01T01:27:54;27.30;;;14.00;;
72261;SDS011;60173;52.112;8.648;2023-03-01T01:30:20;28.95;;;14.63;;
72261;SDS011;60173;52.112;8.648;2023-03-01T01:32:47;25.77;;;13.43;;
72261;SDS011;60173;52.112;8.648;2023-03-01T01:35:13;32.65;;;14.18;;
72261;SDS011;60173;52.112;8.648;2023-03-01T01:37:39;27.95;;;14.30;;
72261;SDS011;60173;52.112;8.648;2023-03-01T01:40:06;29.67;;;15.43;;
72261;SDS011;60173;52.112;8.648;2023-03-01T01:42:33;31.15;;;15.45;;
72261;SDS011;60173;52.112;8.648;2023-03-01T01:47:59;29.00;;;13.57;;
72261;SDS011;60173;52.112;8.648;2023-03-01T01:50:30;28.20;;;15.50;;
72261;SDS011;60173;52.112;8.648;2023-03-01T01:52:59;24.33;;;13.75;;
72261;SDS011;60173;52.112;8.648;2023-03-01T01:55:26;28.17;;;14.27;;
72261;SDS011;60173;52.112;8.648;2023-03-01T01:57:54;33.80;;;15.50;;
72261;SDS011;60173;52.112;8.648;2023-03-01T02:00:25;28.15;;;15.10;;
72261;SDS011;60173;52.112;8.648;2023-03-01T02:02:59;31.60;;;15.38;;
72261;SDS011;60173;52.112;8.648;2023-03-01T02:05:50;27.23;;;14.30;;
72261;SDS011;60173;52.112;8.648;2023-03-01T02:08:30;27.80;;;15.35;;
72261;SDS011;60173;52.112;8.648;2023-03-01T02:10:58;27.73;;;14.80;;
72261;SDS011;60173;52.112;8.648;2023-03-01T02:13:26;34.63;;;15.57;;
72261;SDS011;60173;52.112;8.648;2023-03-01T02:15:53;29.10;;;14.93;;
72261;SDS011;60173;52.112;8.648;2023-03-01T02:18:21;26.70;;;15.23;;
72261;SDS011;60173;52.112;8.648;2023-03-01T02:23:34;27.80;;;14.52;;
72261;SDS011;60173;52.112;8.648;2023-03-01T02:28:47;31.42;;;15.02;;
72261;SDS011;60173;52.112;8.648;2023-03-01T02:31:14;33.45;;;14.75;;
72261;SDS011;60173;52.112;8.648;2023-03-01T02:33:43;30.27;;;15.25;;
72261;SDS011;60173;52.112;8.648;2023-03-01T02:36:23;29.95;;;15.80;;
72261;SDS011;60173;52.112;8.648;2023-03-01T02:38:54;30.88;;;14.75;;
72261;SDS011;60173;52.112;8.648;2023-03-01T02:41:24;26.90;;;16.20;;
72261;SDS011;60173;52.112;8.648;2023-03-01T02:43:52;31.73;;;15.45;;
72261;SDS011;60173;52.112;8.648;2023-03-01T02:46:23;31.63;;;16.13;;
72261;SDS011;60173;52.112;8.648;2023-03-01T02:48:52;34.72;;;16.33;;
72261;SDS011;60173;52.112;8.648;2023-03-01T02:51:42;33.42;;;16.42;;
72261;SDS011;60173;52.112;8.648;2023-03-01T02:54:49;34.08;;;15.65;;
72261;SDS011;60173;52.112;8.648;2023-03-01T02:57:22;31.10;;;17.50;;
72261;SDS011;60173;52.112;8.648;2023-03-01T02:59:50;28.13;;;14.95;;
72261;SDS011;60173;52.112;8.648;2023-03-01T03:02:19;33.17;;;15.23;;
72261;SDS011;60173;52.112;8.648;2023-03-01T03:04:50;27.65;;;15.80;;
72261;SDS011;60173;52.112;8.648;2023-03-01T03:07:16;29.45;;;15.60;;
72261;SDS011;60173;52.112;8.648;2023-03-01T03:09:42;31.77;;;15.82;;
72261;SDS011;60173;52.112;8.648;2023-03-01T03:12:09;28.08;;;15.48;;
72261;SDS011;60173;52.112;8.648;2023-03-01T03:14:35;29.20;;;16.23;;
72261;SDS011;60173;52.112;8.648;2023-03-01T03:17:01;30.92;;;16.17;;
72261;SDS011;60173;52.112;8.648;2023-03-01T03:19:28;32.13;;;16.45;;
72261;SDS011;60173;52.112;8.648;2023-03-01T03:21:54;29.50;;;16.15;;
72261;SDS011;60173;52.112;8.648;2023-03-01T03:24:20;33.22;;;16.38;;
72261;SDS011;60173;52.112;8.648;2023-03-01T03:26:47;26.77;;;15.55;;
72261;SDS011;60173;52.112;8.648;2023-03-01T03:29:13;32.22;;;17.10;;
72261;SDS011;60173;52.112;8.648;2023-03-01T03:31:39;31.75;;;16.42;;
72261;SDS011;60173;52.112;8.648;2023-03-01T03:34:06;30.35;;;16.63;;
72261;SDS011;60173;52.112;8.648;2023-03-01T03:36:32;29.08;;;16.15;;
72261;SDS011;60173;52.112;8.648;2023-03-01T03:38:58;31.88;;;16.58;;
72261;SDS011;60173;52.112;8.648;2023-03-01T03:41:25;32.55;;;16.10;;
72261;SDS011;60173;52.112;8.648;2023-03-01T03:43:51;30.63;;;15.80;;
72261;SDS011;60173;52.112;8.648;2023-03-01T03:46:17;30.83;;;16.75;;
72261;SDS011;60173;52.112;8.648;2023-03-01T03:48:44;29.58;;;16.42;;
72261;SDS011;60173;52.112;8.648;2023-03-01T03:51:12;32.53;;;16.40;;
72261;SDS011;60173;52.112;8.648;2023-03-01T03:53:40;29.15;;;16.40;;
72261;SDS011;60173;52.112;8.648;2023-03-01T03:56:07;33.33;;;17.02;;
72261;SDS011;60173;52.112;8.648;2023-03-01T03:58:34;29.75;;;16.13;;
72261;SDS011;60173;52.112;8.648;2023-03-01T04:01:00;29.02;;;17.10;;
72261;SDS011;60173;52.112;8.648;2023-03-01T04:03:27;35.80;;;17.25;;
72261;SDS011;60173;52.112;8.648;2023-03-01T04:05:56;34.95;;;17.08;;
72261;SDS011;60173;52.112;8.648;2023-03-01T04:08:24;34.53;;;17.48;;
72261;SDS011;60173;52.112;8.648;2023-03-01T04:10:51;36.80;;;16.90;;
72261;SDS011;60173;52.112;8.648;2023-03-01T04:13:20;35.50;;;17.90;;
72261;SDS011;60173;52.112;8.648;2023-03-01T04:15:51;28.10;;;16.60;;
72261;SDS011;60173;52.112;8.648;2023-03-01T04:18:19;32.50;;;17.38;;
72261;SDS011;60173;52.112;8.648;2023-03-01T04:20:47;33.47;;;17.45;;
72261;SDS011;60173;52.112;8.648;2023-03-01T04:23:17;29.73;;;16.83;;
72261;SDS011;60173;52.112;8.648;2023-03-01T04:28:22;34.95;;;17.40;;
72261;SDS011;60173;52.112;8.648;2023-03-01T04:30:50;35.72;;;17.73;;
72261;SDS011;60173;52.112;8.648;2023-03-01T04:33:17;29.00;;;16.55;;
72261;SDS011;60173;52.112;8.648;2023-03-01T04:38:14;31.58;;;15.90;;
72261;SDS011;60173;52.112;8.648;2023-03-01T04:40:42;34.33;;;17.58;;
72261;SDS011;60173;52.112;8.648;2023-03-01T04:43:09;34.22;;;16.90;;
72261;SDS011;60173;52.112;8.648;2023-03-01T04:45:36;30.30;;;16.38;;
72261;SDS011;60173;52.112;8.648;2023-03-01T04:48:03;31.90;;;16.38;;
72261;SDS011;60173;52.112;8.648;2023-03-01T04:50:30;33.65;;;17.48;;
72261;SDS011;60173;52.112;8.648;2023-03-01T04:52:56;31.40;;;16.23;;
72261;SDS011;60173;52.112;8.648;2023-03-01T04:55:23;32.17;;;17.52;;
72261;SDS011;60173;52.112;8.648;2023-03-01T04:57:49;32.00;;;16.70;;
72261;SDS011;60173;52.112;8.648;2023-03-01T05:00:15;28.02;;;15.50;;
72261;SDS011;60173;52.112;8.648;2023-03-01T05:02:42;29.23;;;15.20;;
72261;SDS011;60173;52.112;8.648;2023-03-01T05:05:08;28.75;;;15.88;;
72261;SDS011;60173;52.112;8.648;2023-03-01T05:07:34;28.17;;;14.57;;
72261;SDS011;60173;52.112;8.648;2023-03-01T05:10:01;26.17;;;14.18;;
72261;SDS011;60173;52.112;8.648;2023-03-01T05:12:27;34.33;;;15.88;;
72261;SDS011;60173;52.112;8.648;2023-03-01T05:14:53;27.23;;;14.63;;
72261;SDS011;60173;52.112;8.648;2023-03-01T05:17:20;28.83;;;14.98;;
72261;SDS011;60173;52.112;8.648;2023-03-01T05:19:46;27.38;;;14.43;;
72261;SDS011;60173;52.112;8.648;2023-03-01T05:22:12;27.45;;;14.32;;
72261;SDS011;60173;52.112;8.648;2023-03-01T05:24:39;31.33;;;15.75;;
72261;SDS011;60173;52.112;8.648;2023-03-01T05:27:05;27.20;;;13.63;;
72261;SDS011;60173;52.112;8.648;2023-03-01T05:29:31;30.17;;;15.45;;
72261;SDS011;60173;52.112;8.648;2023-03-01T05:31:58;28.60;;;14.30;;
72261;SDS011;60173;52.112;8.648;2023-03-01T05:34:30;34.17;;;14.90;;
72261;SDS011;60173;52.112;8.648;2023-03-01T05:37:01;33.65;;;16.20;;
72261;SDS011;60173;52.112;8.648;2023-03-01T05:39:28;30.73;;;15.50;;
72261;SDS011;60173;52.112;8.648;2023-03-01T05:41:56;26.55;;;15.60;;
72261;SDS011;60173;52.112;8.648;2023-03-01T05:44:24;31.85;;;14.38;;
72261;SDS011;60173;52.112;8.648;2023-03-01T05:46:52;30.92;;;15.43;;
72261;SDS011;60173;52.112;8.648;2023-03-01T05:49:18;26.77;;;14.80;;
72261;SDS011;60173;52.112;8.648;2023-03-01T05:51:48;28.98;;;14.73;;
72261;SDS011;60173;52.112;8.648;2023-03-01T05:54:16;29.30;;;14.95;;
72261;SDS011;60173;52.112;8.648;2023-03-01T05:56:44;28.40;;;16.00;;
72261;SDS011;60173;52.112;8.648;2023-03-01T05:59:10;28.80;;;16.00;;
72261;SDS011;60173;52.112;8.648;2023-03-01T06:01:37;28.65;;;15.60;;
72261;SDS011;60173;52.112;8.648;2023-03-01T06:04:04;27.85;;;14.68;;
72261;SDS011;60173;52.112;8.648;2023-03-01T06:06:34;34.10;;;15.73;;
72261;SDS011;60173;52.112;8.648;2023-03-01T06:09:01;31.40;;;15.95;;
72261;SDS011;60173;52.112;8.648;2023-03-01T06:11:28;37.30;;;15.90;;
72261;SDS011;60173;52.112;8.648;2023-03-01T06:13:54;25.27;;;14.25;;
72261;SDS011;60173;52.112;8.648;2023-03-01T06:16:20;24.35;;;14.10;;
72261;SDS011;60173;52.112;8.648;2023-03-01T06:18:47;27.42;;;14.77;;
72261;SDS011;60173;52.112;8.648;2023-03-01T06:21:13;28.63;;;14.15;;
72261;SDS011;60173;52.112;8.648;2023-03-01T06:23:40;26.70;;;15.25;;
72261;SDS011;60173;52.112;8.648;2023-03-01T06:26:06;25.65;;;15.13;;
72261;SDS011;60173;52.112;8.648;2023-03-01T06:28:34;28.27;;;15.70;;
72261;SDS011;60173;52.112;8.648;2023-03-01T06:31:01;30.35;;;16.38;;
72261;SDS011;60173;52.112;8.648;2023-03-01T06:33:28;30.67;;;15.93;;
72261;SDS011;60173;52.112;8.648;2023-03-01T06:35:54;28.35;;;15.10;;
72261;SDS011;60173;52.112;8.648;2023-03-01T06:38:22;26.83;;;14.85;;
72261;SDS011;60173;52.112;8.648;2023-03-01T06:40:52;30.33;;;15.05;;
72261;SDS011;60173;52.112;8.648;2023-03-01T06:43:20;32.88;;;16.48;;
72261;SDS011;60173;52.112;8.648;2023-03-01T06:45:47;26.45;;;14.63;;
72261;SDS011;60173;52.112;8.648;2023-03-01T06:48:13;27.25;;;15.20;;
72261;SDS011;60173;52.112;8.648;2023-03-01T06:50:39;25.90;;;14.55;;
72261;SDS011;60173;52.112;8.648;2023-03-01T06:53:06;29.73;;;14.10;;
72261;SDS011;60173;52.112;8.648;2023-03-01T06:55:32;32.03;;;15.30;;
72261;SDS011;60173;52.112;8.648;2023-03-01T06:57:59;28.05;;;15.73;;
72261;SDS011;60173;52.112;8.648;2023-03-01T07:00:27;28.55;;;15.38;;
72261;SDS011;60173;52.112;8.648;2023-03-01T07:02:54;30.42;;;16.08;;
72261;SDS011;60173;52.112;8.648;2023-03-01T07:05:21;26.20;;;15.05;;
72261;SDS011;60173;52.112;8.648;2023-03-01T07:07:47;29.63;;;15.32;;
72261;SDS011;60173;52.112;8.648;2023-03-01T07:10:14;29.30;;;16.70;;
72261;SDS011;60173;52.112;8.648;2023-03-01T07:12:40;31.95;;;16.33;;
72261;SDS011;60173;52.112;8.648;2023-03-01T07:15:08;33.03;;;17.15;;
72261;SDS011;60173;52.112;8.648;2023-03-01T07:17:35;41.53;;;24.50;;
72261;SDS011;60173;52.112;8.648;2023-03-01T07:20:02;33.65;;;17.65;;
72261;SDS011;60173;52.112;8.648;2023-03-01T07:22:29;32.50;;;18.60;;
72261;SDS011;60173;52.112;8.648;2023-03-01T07:24:55;32.17;;;17.40;;
72261;SDS011;60173;52.112;8.648;2023-03-01T07:27:21;29.80;;;17.23;;
72261;SDS011;60173;52.112;8.648;2023-03-01T07:29:48;36.80;;;16.45;;
72261;SDS011;60173;52.112;8.648;2023-03-01T07:32:14;32.55;;;15.45;;
72261;SDS011;60173;52.112;8.648;2023-03-01T07:34:40;36.00;;;18.48;;
72261;SDS011;60173;52.112;8.648;2023-03-01T07:37:07;37.40;;;20.20;;
72261;SDS011;60173;52.112;8.648;2023-03-01T07:39:33;31.65;;;17.50;;
72261;SDS011;60173;52.112;8.648;2023-03-01T07:41:59;33.97;;;15.68;;
72261;SDS011;60173;52.112;8.648;2023-03-01T07:44:26;28.33;;;16.15;;
72261;SDS011;60173;52.112;8.648;2023-03-01T07:46:52;34.83;;;16.35;;
72261;SDS011;60173;52.112;8.648;2023-03-01T07:49:18;30.67;;;16.15;;
72261;SDS011;60173;52.112;8.648;2023-03-01T07:51:45;30.38;;;16.13;;
72261;SDS011;60173;52.112;8.648;2023-03-01T07:54:11;35.03;;;16.75;;
72261;SDS011;60173;52.112;8.648;2023-03-01T07:56:38;27.42;;;15.73;;
72261;SDS011;60173;52.112;8.648;2023-03-01T07:59:04;35.72;;;17.88;;
72261;SDS011;60173;52.112;8.648;2023-03-01T08:01:30;33.00;;;17.52;;
72261;SDS011;60173;52.112;8.648;2023-03-01T08:03:57;35.67;;;18.50;;
72261;SDS011;60173;52.112;8.648;2023-03-01T08:06:23;33.70;;;18.25;;
72261;SDS011;60173;52.112;8.648;2023-03-01T08:08:49;33.55;;;16.75;;
72261;SDS011;60173;52.112;8.648;2023-03-01T08:11:16;23.83;;;15.38;;
72261;SDS011;60173;52.112;8.648;2023-03-01T08:13:43;27.77;;;15.93;;
72261;SDS011;60173;52.112;8.648;2023-03-01T08:16:10;32.28;;;16.00;;
72261;SDS011;60173;52.112;8.648;2023-03-01T08:18:38;28.77;;;16.40;;
72261;SDS011;60173;52.112;8.648;2023-03-01T08:21:09;31.95;;;16.30;;
72261;SDS011;60173;52.112;8.648;2023-03-01T08:23:37;32.17;;;17.95;;
72261;SDS011;60173;52.112;8.648;2023-03-01T08:26:05;28.98;;;16.45;;
72261;SDS011;60173;52.112;8.648;2023-03-01T08:28:31;29.70;;;16.63;;
72261;SDS011;60173;52.112;8.648;2023-03-01T08:30:58;28.52;;;16.40;;
72261;SDS011;60173;52.112;8.648;2023-03-01T08:33:24;30.75;;;17.58;;
72261;SDS011;60173;52.112;8.648;2023-03-01T08:35:51;35.17;;;18.95;;
72261;SDS011;60173;52.112;8.648;2023-03-01T08:38:17;42.15;;;18.30;;
72261;SDS011;60173;52.112;8.648;2023-03-01T08:40:43;40.30;;;17.92;;
72261;SDS011;60173;52.112;8.648;2023-03-01T08:43:10;34.75;;;17.92;;
72261;SDS011;60173;52.112;8.648;2023-03-01T08:45:36;31.25;;;16.63;;
72261;SDS011;60173;52.112;8.648;2023-03-01T08:48:02;29.35;;;14.98;;
72261;SDS011;60173;52.112;8.648;2023-03-01T08:50:29;23.77;;;14.13;;
72261;SDS011;60173;52.112;8.648;2023-03-01T08:52:55;26.17;;;13.82;;
72261;SDS011;60173;52.112;8.648;2023-03-01T08:55:21;32.05;;;14.63;;
72261;SDS011;60173;52.112;8.648;2023-03-01T08:57:48;24.27;;;12.98;;
72261;SDS011;60173;52.112;8.648;2023-03-01T09:00:14;28.17;;;14.27;;
72261;SDS011;60173;52.112;8.648;2023-03-01T09:02:41;25.50;;;14.13;;
72261;SDS011;60173;52.112;8.648;2023-03-01T09:05:07;25.50;;;15.13;;
72261;SDS011;60173;52.112;8.648;2023-03-01T09:07:34;29.35;;;14.77;;
72261;SDS011;60173;52.112;8.648;2023-03-01T09:10:00;33.67;;;14.48;;
72261;SDS011;60173;52.112;8.648;2023-03-01T09:12:27;25.13;;;14.23;;
72261;SDS011;60173;52.112;8.648;2023-03-01T09:14:53;28.30;;;14.52;;
72261;SDS011;60173;52.112;8.648;2023-03-01T09:17:19;29.70;;;15.10;;
72261;SDS011;60173;52.112;8.648;2023-03-01T09:19:45;30.83;;;14.82;;
72261;SDS011;60173;52.112;8.648;2023-03-01T09:22:12;28.83;;;12.80;;
72261;SDS011;60173;52.112;8.648;2023-03-01T09:24:38;29.38;;;13.02;;
72261;SDS011;60173;52.112;8.648;2023-03-01T09:27:04;17.60;;;10.00;;
72261;SDS011;60173;52.112;8.648;2023-03-01T09:29:31;22.33;;;9.88;;
72261;SDS011;60173;52.112;8.648;2023-03-01T09:31:58;20.67;;;10.05;;
72261;SDS011;60173;52.112;8.648;2023-03-01T09:34:24;19.08;;;10.25;;
72261;SDS011;60173;52.112;8.648;2023-03-01T09:36:51;15.63;;;9.20;;
72261;SDS011;60173;52.112;8.648;2023-03-01T09:39:17;19.52;;;9.93;;
72261;SDS011;60173;52.112;8.648;2023-03-01T09:47:18;20.90;;;9.75;;
72261;SDS011;60173;52.112;8.648;2023-03-01T09:49:50;17.20;;;8.57;;
72261;SDS011;60173;52.112;8.648;2023-03-01T09:52:40;15.38;;;8.15;;
72261;SDS011;60173;52.112;8.648;2023-03-01T09:55:20;15.73;;;8.52;;
72261;SDS011;60173;52.112;8.648;2023-03-01T09:58:18;16.23;;;8.13;;
72261;SDS011;60173;52.112;8.648;2023-03-01T10:01:06;18.20;;;8.05;;
72261;SDS011;60173;52.112;8.648;2023-03-01T10:03:47;16.52;;;7.45;;
72261;SDS011;60173;52.112;8.648;2023-03-01T10:06:27;17.63;;;8.70;;
72261;SDS011;60173;52.112;8.648;2023-03-01T10:09:07;16.45;;;8.60;;
72261;SDS011;60173;52.112;8.648;2023-03-01T10:11:39;15.80;;;8.43;;
72261;SDS011;60173;52.112;8.648;2023-03-01T10:19:32;14.32;;;7.68;;
72261;SDS011;60173;52.112;8.648;2023-03-01T10:22:11;13.38;;;6.80;;
72261;SDS011;60173;52.112;8.648;2023-03-01T10:24:41;13.32;;;7.80;;
72261;SDS011;60173;52.112;8.648;2023-03-01T10:27:14;14.07;;;7.10;;
72261;SDS011;60173;52.112;8.648;2023-03-01T10:29:53;13.68;;;6.95;;
72261;SDS011;60173;52.112;8.648;2023-03-01T10:32:39;12.00;;;7.38;;
72261;SDS011;60173;52.112;8.648;2023-03-01T10:37:57;15.35;;;7.43;;
72261;SDS011;60173;52.112;8.648;2023-03-01T10:42:54;14.13;;;6.93;;
72261;SDS011;60173;52.112;8.648;2023-03-01T10:45:29;16.17;;;7.05;;
72261;SDS011;60173;52.112;8.648;2023-03-01T10:50:45;16.42;;;7.05;;
72261;SDS011;60173;52.112;8.648;2023-03-01T10:53:23;19.30;;;9.63;;
72261;SDS011;60173;52.112;8.648;2023-03-01T10:55:59;22.42;;;9.00;;
72261;SDS011;60173;52.112;8.648;2023-03-01T10:58:28;28.50;;;12.80;;
72261;SDS011;60173;52.112;8.648;2023-03-01T11:01:03;15.00;;;7.15;;
72261;SDS011;60173;52.112;8.648;2023-03-01T11:03:41;12.55;;;6.50;;
72261;SDS011;60173;52.112;8.648;2023-03-01T11:13:35;13.23;;;6.97;;
72261;SDS011;60173;52.112;8.648;2023-03-01T11:16:09;15.20;;;6.82;;
72261;SDS011;60173;52.112;8.648;2023-03-01T11:18:38;10.98;;;6.18;;
72261;SDS011;60173;52.112;8.648;2023-03-01T11:21:13;12.77;;;6.85;;
72261;SDS011;60173;52.112;8.648;2023-03-01T11:23:41;10.85;;;6.75;;
72261;SDS011;60173;52.112;8.648;2023-03-01T11:26:11;13.63;;;6.82;;
72261;SDS011;60173;52.112;8.648;2023-03-01T11:28:40;13.27;;;6.53;;
72261;SDS011;60173;52.112;8.648;2023-03-01T11:31:09;13.27;;;6.88;;
72261;SDS011;60173;52.112;8.648;2023-03-01T11:33:44;15.52;;;6.85;;
72261;SDS011;60173;52.112;8.648;2023-03-01T11:38:41;12.85;;;6.70;;
72261;SDS011;60173;52.112;8.648;2023-03-01T11:41:23;11.75;;;6.45;;
72261;SDS011;60173;52.112;8.648;2023-03-01T11:43:56;12.55;;;6.80;;
72261;SDS011;60173;52.112;8.648;2023-03-01T12:08:53;15.15;;;6.93;;
72261;SDS011;60173;52.112;8.648;2023-03-01T12:11:25;12.15;;;6.38;;
72261;SDS011;60173;52.112;8.648;2023-03-01T12:17:01;12.35;;;7.13;;
72261;SDS011;60173;52.112;8.648;2023-03-01T12:28:12;14.85;;;7.22;;
72261;SDS011;60173;52.112;8.648;2023-03-01T12:31:00;13.40;;;7.20;;
72261;SDS011;60173;52.112;8.648;2023-03-01T12:36:44;9.45;;;5.97;;
72261;SDS011;60173;52.112;8.648;2023-03-01T12:50:47;13.13;;;6.78;;
72261;SDS011;60173;52.112;8.648;2023-03-01T12:53:24;15.27;;;8.23;;
72261;SDS011;60173;52.112;8.648;2023-03-01T12:55:53;13.27;;;7.68;;
72261;SDS011;60173;52.112;8.648;2023-03-01T12:58:35;14.18;;;8.10;;
72261;SDS011;60173;52.112;8.648;2023-03-01T13:01:36;17.33;;;8.45;;
72261;SDS011;60173;52.112;8.648;2023-03-01T13:04:16;15.60;;;8.60;;
72261;SDS011;60173;52.112;8.648;2023-03-01T13:17:52;15.57;;;8.65;;
72261;SDS011;60173;52.112;8.648;2023-03-01T13:20:26;17.30;;;8.73;;
72261;SDS011;60173;52.112;8.648;2023-03-01T13:23:00;15.32;;;8.38;;
72261;SDS011;60173;52.112;8.648;2023-03-01T13:25:33;13.75;;;7.32;;
72261;SDS011;60173;52.112;8.648;2023-03-01T13:31:02;12.93;;;7.00;;
72261;SDS011;60173;52.112;8.648;2023-03-01T13:35:57;12.30;;;6.82;;
72261;SDS011;60173;52.112;8.648;2023-03-01T13:38:45;13.65;;;6.93;;
72261;SDS011;60173;52.112;8.648;2023-03-01T13:46:59;15.70;;;7.05;;
72261;SDS011;60173;52.112;8.648;2023-03-01T13:54:55;11.65;;;6.82;;
72261;SDS011;60173;52.112;8.648;2023-03-01T13:57:24;15.95;;;6.82;;
72261;SDS011;60173;52.112;8.648;2023-03-01T13:59:55;11.50;;;5.85;;
72261;SDS011;60173;52.112;8.648;2023-03-01T14:02:21;17.95;;;6.95;;
72261;SDS011;60173;52.112;8.648;2023-03-01T14:05:00;16.88;;;7.35;;
72261;SDS011;60173;52.112;8.648;2023-03-01T14:07:27;21.10;;;10.10;;
72261;SDS011;60173;52.112;8.648;2023-03-01T14:09:54;10.93;;;6.80;;
72261;SDS011;60173;52.112;8.648;2023-03-01T14:15:19;17.80;;;9.65;;
72261;SDS011;60173;52.112;8.648;2023-03-01T14:20:32;14.35;;;7.15;;
72261;SDS011;60173;52.112;8.648;2023-03-01T14:23:08;12.13;;;7.88;;
72261;SDS011;60173;52.112;8.648;2023-03-01T14:25:38;14.45;;;7.40;;
72261;SDS011;60173;52.112;8.648;2023-03-01T14:28:17;15.70;;;7.07;;
72261;SDS011;60173;52.112;8.648;2023-03-01T14:30:50;12.57;;;6.45;;
72261;SDS011;60173;52.112;8.648;2023-03-01T14:35:57;14.45;;;6.93;;
72261;SDS011;60173;52.112;8.648;2023-03-01T14:38:30;12.68;;;6.18;;
72261;SDS011;60173;52.112;8.648;2023-03-01T14:41:08;12.43;;;6.35;;
72261;SDS011;60173;52.112;8.648;2023-03-01T14:43:37;12.30;;;6.20;;
72261;SDS011;60173;52.112;8.648;2023-03-01T14:46:16;21.98;;;10.70;;
72261;SDS011;60173;52.112;8.648;2023-03-01T14:48:45;18.15;;;8.75;;
72261;SDS011;60173;52.112;8.648;2023-03-01T14:51:14;13.15;;;6.25;;
72261;SDS011;60173;52.112;8.648;2023-03-01T14:53:40;12.73;;;6.40;;
72261;SDS011;60173;52.112;8.648;2023-03-01T14:56:16;14.07;;;6.90;;
72261;SDS011;60173;52.112;8.648;2023-03-01T14:58:44;11.30;;;6.15;;
72261;SDS011;60173;52.112;8.648;2023-03-01T15:01:12;10.18;;;4.90;;
72261;SDS011;60173;52.112;8.648;2023-03-01T15:03:47;16.02;;;5.38;;
72261;SDS011;60173;52.112;8.648;2023-03-01T15:06:19;13.13;;;5.80;;
72261;SDS011;60173;52.112;8.648;2023-03-01T15:08:48;9.90;;;5.32;;
72261;SDS011;60173;52.112;8.648;2023-03-01T15:11:19;11.85;;;5.35;;
72261;SDS011;60173;52.112;8.648;2023-03-01T15:13:56;11.07;;;4.93;;
72261;SDS011;60173;52.112;8.648;2023-03-01T15:16:24;8.38;;;4.90;;
72261;SDS011;60173;52.112;8.648;2023-03-01T15:19:15;9.43;;;4.80;;
72261;SDS011;60173;52.112;8.648;2023-03-01T15:21:44;12.75;;;4.93;;
72261;SDS011;60173;52.112;8.648;2023-03-01T15:24:18;9.70;;;4.80;;
72261;SDS011;60173;52.112;8.648;2023-03-01T15:29:20;7.55;;;4.10;;
72261;SDS011;60173;52.112;8.648;2023-03-01T15:31:59;8.05;;;4.72;;
72261;SDS011;60173;52.112;8.648;2023-03-01T15:34:30;8.82;;;4.85;;
72261;SDS011;60173;52.112;8.648;2023-03-01T15:36:59;9.68;;;5.43;;
72261;SDS011;60173;52.112;8.648;2023-03-01T15:39:37;10.23;;;5.22;;
72261;SDS011;60173;52.112;8.648;2023-03-01T15:42:06;11.57;;;6.50;;
72261;SDS011;60173;52.112;8.648;2023-03-01T15:44:36;8.95;;;4.35;;
72261;SDS011;60173;52.112;8.648;2023-03-01T15:47:29;7.45;;;4.32;;
72261;SDS011;60173;52.112;8.648;2023-03-01T15:49:57;9.05;;;4.50;;
72261;SDS011;60173;52.112;8.648;2023-03-01T15:52:26;9.60;;;4.47;;
72261;SDS011;60173;52.112;8.648;2023-03-01T15:54:59;11.60;;;4.00;;
72261;SDS011;60173;52.112;8.648;2023-03-01T15:57:27;7.20;;;3.90;;
72261;SDS011;60173;52.112;8.648;2023-03-01T15:59:54;10.32;;;5.45;;
72261;SDS011;60173;52.112;8.648;2023-03-01T16:02:21;7.53;;;3.70;;
72261;SDS011;60173;52.112;8.648;2023-03-01T16:04:49;7.75;;;4.28;;
72261;SDS011;60173;52.112;8.648;2023-03-01T16:07:16;7.13;;;4.32;;
72261;SDS011;60173;52.112;8.648;2023-03-01T16:09:43;6.57;;;3.72;;
72261;SDS011;60173;52.112;8.648;2023-03-01T16:12:12;7.47;;;4.30;;
72261;SDS011;60173;52.112;8.648;2023-03-01T16:14:41;9.43;;;4.22;;
72261;SDS011;60173;52.112;8.648;2023-03-01T16:17:07;8.02;;;4.00;;
72261;SDS011;60173;52.112;8.648;2023-03-01T16:19:34;5.93;;;3.80;;
72261;SDS011;60173;52.112;8.648;2023-03-01T16:22:00;7.82;;;3.95;;
72261;SDS011;60173;52.112;8.648;2023-03-01T16:24:26;7.93;;;4.05;;
72261;SDS011;60173;52.112;8.648;2023-03-01T16:26:53;7.10;;;4.20;;
72261;SDS011;60173;52.112;8.648;2023-03-01T16:29:19;7.15;;;4.28;;
72261;SDS011;60173;52.112;8.648;2023-03-01T16:31:45;10.57;;;4.20;;
72261;SDS011;60173;52.112;8.648;2023-03-01T16:34:12;6.20;;;4.10;;
72261;SDS011;60173;52.112;8.648;2023-03-01T16:36:38;6.70;;;4.40;;
72261;SDS011;60173;52.112;8.648;2023-03-01T16:39:04;8.25;;;4.03;;
72261;SDS011;60173;52.112;8.648;2023-03-01T16:41:31;8.27;;;3.97;;
72261;SDS011;60173;52.112;8.648;2023-03-01T16:43:58;8.85;;;4.32;;
72261;SDS011;60173;52.112;8.648;2023-03-01T16:46:25;7.03;;;4.00;;
72261;SDS011;60173;52.112;8.648;2023-03-01T16:48:53;7.93;;;4.90;;
72261;SDS011;60173;52.112;8.648;2023-03-01T16:51:20;15.68;;;7.97;;